American Lake, Washington
Current Conditions -  °F | °C
As of 8:58 PM on Sunday 21 Dec 2014 (Local Time) from KGRF Reporting Station
Broken Clouds Broken Clouds  
Wind Chill:   Ceiling: 10000
Heat Index:   Visibility: 10mi
Dew Point:   Wind: 2mph
Humidity: 99%   Direction: 180°S
Pressure: 30.11"   Gusts: NA
Location:  47.1451°N, 122.578°W
Report Text: KGRF 220458Z 18002KT 10SM FEW035 SCT060 SCT075 BKN100 09/09 A3011 RMK AO2A WND DATA ESTMD SLP201 T00920090 $
Loading
Personal Weather Stations






























Interactive Weather Map New forecast layout! Learn more

10-Day Weather Forecast

Advertisements
Track Severe Weather on mobile